ADDS METAR Data INFO
IDs: Format: Raw Decoded Include TAF

Data at: 1518 UTC 22 Jun 2018

KWVI 221511Z AUTO 00000KT 1 1/4SM BR OVC002 A2999 RMK AO2 $

KSNS 221501Z 08003KT 1SM BR OVC002 12/11 A2998 RMK AO2 T01170111 RVRNO $

KMRY 221511Z 04003KT 3SM BR OVC001 12/11 A2998 RMK AO2 T01170111

KSJC 221453Z 00000KT 10SM FEW100 17/12 A2996 RMK AO2 SLP146 T01670122 53003

KSFO 221456Z 30005KT 10SM FEW008 FEW200 16/10 A2997 RMK AO2 SLP147 T01610100 53005 $

KHAF 221515Z AUTO 17003KT 4SM BR OVC011 12/11 A3000 RMK AO2